Time,TemperatureF,DewpointF,PressureIn,WindDirection,WindDirectionDegrees,WindSpeedMPH,WindSpeedGustMPH,Humidity,HourlyPrecipIn,Conditions,Clouds,dailyrainin,SoftwareType,DateUTC
2013-02-06 00:12:00,56.3,54.0,29.98,East,82,0.0,-999.0,92,-99.99,,,0.00,weatherlink.com 1.10,2013-02-06 06:12:00,
2013-02-06 00:27:00,56.4,55.0,29.98,East,82,0.0,-999.0,93,-99.99,,,0.00,weatherlink.com 1.10,2013-02-06 06:27:00,
2013-02-06 00:42:00,56.2,54.0,29.97,East,83,0.0,-999.0,93,-99.99,,,0.00,weatherlink.com 1.10,2013-02-06 06:42:00,
2013-02-06 00:57:00,56.0,54.0,29.97,East,82,0.0,-999.0,93,-99.99,,,0.00,weatherlink.com 1.10,2013-02-06 06:57:00,
2013-02-06 01:12:00,56.0,54.0,29.97,ENE,68,0.0,-999.0,93,-99.99,,,0.00,weatherlink.com 1.10,2013-02-06 07:12:00,
2013-02-06 01:27:00,56.1,54.0,29.97,East,81,0.0,-999.0,93,-99.99,,,0.00,weatherlink.com 1.10,2013-02-06 07:27:00,
2013-02-06 01:42:00,56.0,54.0,29.97,East,79,0.0,-999.0,93,-99.99,,,0.00,weatherlink.com 1.10,2013-02-06 07:42:00,
2013-02-06 01:57:00,55.9,54.0,29.97,East,79,0.0,-999.0,93,-99.99,,,0.00,weatherlink.com 1.10,2013-02-06 07:57:00,
2013-02-06 02:12:00,55.8,54.0,29.97,East,80,0.0,-999.0,93,-99.99,,,0.00,weatherlink.com 1.10,2013-02-06 08:12:00,
2013-02-06 02:27:00,55.9,54.0,29.97,NE,51,5.0,-999.0,93,-99.99,,,0.00,weatherlink.com 1.10,2013-02-06 08:27:00,
2013-02-06 02:43:00,56.2,55.0,29.97,East,79,0.0,-999.0,94,-99.99,,,0.00,weatherlink.com 1.10,2013-02-06 08:43:00,
2013-02-06 02:58:00,56.3,55.0,29.97,East,80,0.0,-999.0,94,-99.99,,,0.01,weatherlink.com 1.10,2013-02-06 08:58:00,
2013-02-06 03:12:00,56.2,55.0,29.97,East,82,0.0,-999.0,94,-99.99,,,0.01,weatherlink.com 1.10,2013-02-06 09:12:00,
2013-02-06 03:27:00,56.2,55.0,29.97,ENE,72,0.0,-999.0,94,-99.99,,,0.01,weatherlink.com 1.10,2013-02-06 09:27:00,
2013-02-06 03:42:00,56.2,55.0,29.95,East,85,6.0,-999.0,94,-99.99,,,0.01,weatherlink.com 1.10,2013-02-06 09:42:00,
2013-02-06 03:57:00,56.3,55.0,29.96,ENE,76,0.0,-999.0,94,-99.99,,,0.01,weatherlink.com 1.10,2013-02-06 09:57:00,
2013-02-06 04:12:00,56.5,55.0,29.96,ESE,109,0.0,-999.0,94,-99.99,,,0.01,weatherlink.com 1.10,2013-02-06 10:12:00,
2013-02-06 04:27:00,56.9,55.0,29.97,ESE,103,0.0,-999.0,94,-99.99,,,0.01,weatherlink.com 1.10,2013-02-06 10:27:00,
2013-02-06 04:43:00,57.4,56.0,29.97,ESE,119,0.0,-999.0,94,-99.99,,,0.01,weatherlink.com 1.10,2013-02-06 10:43:00,
2013-02-06 04:57:00,57.7,56.0,29.97,ESE,113,0.0,-999.0,94,-99.99,,,0.01,weatherlink.com 1.10,2013-02-06 10:57:00,
2013-02-06 05:12:00,57.8,56.0,29.97,ESE,117,0.0,-999.0,94,-99.99,,,0.01,weatherlink.com 1.10,2013-02-06 11:12:00,
2013-02-06 05:28:00,58.0,56.0,29.97,SE,131,0.0,-999.0,94,-99.99,,,0.01,weatherlink.com 1.10,2013-02-06 11:28:00,
2013-02-06 05:43:00,58.4,57.0,29.96,SE,129,0.0,-999.0,94,-99.99,,,0.01,weatherlink.com 1.10,2013-02-06 11:43:00,
2013-02-06 05:58:00,58.4,57.0,29.96,East,99,0.0,-999.0,94,-99.99,,,0.01,weatherlink.com 1.10,2013-02-06 11:58:00,
2013-02-06 06:13:00,58.4,57.0,29.96,ESE,106,0.0,-999.0,94,-99.99,,,0.01,weatherlink.com 1.10,2013-02-06 12:13:00,
2013-02-06 06:28:00,58.5,57.0,29.96,ESE,107,0.0,-999.0,94,-99.99,,,0.01,weatherlink.com 1.10,2013-02-06 12:28:00,
2013-02-06 06:43:00,58.6,57.0,29.96,ESE,107,0.0,-999.0,94,-99.99,,,0.01,weatherlink.com 1.10,2013-02-06 12:43:00,
2013-02-06 06:58:00,59.0,57.0,29.97,SE,130,0.0,-999.0,94,-99.99,,,0.01,weatherlink.com 1.10,2013-02-06 12:58:00,
2013-02-06 07:13:00,59.0,57.0,29.97,ESE,109,0.0,-999.0,94,-99.99,,,0.01,weatherlink.com 1.10,2013-02-06 13:13:00,
2013-02-06 07:28:00,59.0,57.0,29.98,ESE,109,0.0,-999.0,94,-99.99,,,0.01,weatherlink.com 1.10,2013-02-06 13:28:00,
2013-02-06 07:43:00,59.1,57.0,29.98,ESE,103,0.0,-999.0,94,-99.99,,,0.01,weatherlink.com 1.10,2013-02-06 13:43:00,
2013-02-06 07:58:00,59.4,58.0,29.97,ESE,113,0.0,-999.0,94,-99.99,,,0.01,weatherlink.com 1.10,2013-02-06 13:58:00,
2013-02-06 08:13:00,59.6,58.0,29.98,ESE,110,0.0,-999.0,95,-99.99,,,0.01,weatherlink.com 1.10,2013-02-06 14:13:00,
2013-02-06 08:28:00,60.0,59.0,29.98,ESE,118,0.0,-999.0,95,-99.99,,,0.01,weatherlink.com 1.10,2013-02-06 14:28:00,
2013-02-06 08:43:00,60.2,59.0,29.98,ESE,121,0.0,-999.0,95,-99.99,,,0.01,weatherlink.com 1.10,2013-02-06 14:43:00,
2013-02-06 08:58:00,60.5,59.0,29.98,SE,128,0.0,-999.0,95,-99.99,,,0.01,weatherlink.com 1.10,2013-02-06 14:58:00,
2013-02-06 09:13:00,60.7,59.0,29.98,ESE,118,0.0,-999.0,95,-99.99,,,0.01,weatherlink.com 1.10,2013-02-06 15:13:00,
2013-02-06 09:28:00,60.9,60.0,29.99,ESE,107,2.0,-999.0,95,-99.99,,,0.01,weatherlink.com 1.10,2013-02-06 15:28:00,
2013-02-06 09:58:00,61.7,60.0,30.00,SE,142,0.0,-999.0,95,-99.99,,,0.01,weatherlink.com 1.10,2013-02-06 15:58:00,
2013-02-06 10:13:00,61.9,60.0,29.99,East,97,0.0,-999.0,94,-99.99,,,0.01,weatherlink.com 1.10,2013-02-06 16:13:00,
2013-02-06 10:28:00,62.7,61.0,30.00,South,172,0.0,-999.0,94,-99.99,,,0.01,weatherlink.com 1.10,2013-02-06 16:28:00,
2013-02-06 10:43:00,62.9,61.0,29.99,SSE,165,0.0,-999.0,93,-99.99,,,0.01,weatherlink.com 1.10,2013-02-06 16:43:00,
2013-02-06 10:58:00,62.8,61.0,30.00,SE,138,0.0,-999.0,92,-99.99,,,0.01,weatherlink.com 1.10,2013-02-06 16:58:00,
2013-02-06 11:13:00,63.2,61.0,29.99,SE,138,0.0,-999.0,92,-99.99,,,0.01,weatherlink.com 1.10,2013-02-06 17:13:00,
2013-02-06 11:28:00,65.6,62.0,29.98,ESE,123,0.0,-999.0,89,-99.99,,,0.01,weatherlink.com 1.10,2013-02-06 17:28:00,
2013-02-06 11:43:00,67.4,62.0,29.97,ESE,105,3.0,-999.0,83,-99.99,,,0.01,weatherlink.com 1.10,2013-02-06 17:43:00,
2013-02-06 11:59:00,69.0,59.0,29.96,SSE,165,0.0,-999.0,71,-99.99,,,0.01,weatherlink.com 1.10,2013-02-06 17:59:00,
2013-02-06 12:14:00,70.3,60.0,29.95,South,172,0.0,-999.0,69,-99.99,,,0.01,weatherlink.com 1.10,2013-02-06 18:14:00,
2013-02-06 12:28:00,70.8,59.0,29.94,SE,125,0.0,-999.0,67,-99.99,,,0.01,weatherlink.com 1.10,2013-02-06 18:28:00,
2013-02-06 12:43:00,71.6,58.0,29.93,SSE,164,0.0,-999.0,63,-99.99,,,0.01,weatherlink.com 1.10,2013-02-06 18:43:00,
2013-02-06 12:59:00,72.6,58.0,29.91,SSE,154,0.0,-999.0,60,-99.99,,,0.01,weatherlink.com 1.10,2013-02-06 18:59:00,
2013-02-06 13:14:00,73.6,57.0,29.90,ESE,117,0.0,-999.0,57,-99.99,,,0.01,weatherlink.com 1.10,2013-02-06 19:14:00,
2013-02-06 13:29:00,74.4,57.0,29.90,SSE,160,0.0,-999.0,55,-99.99,,,0.01,weatherlink.com 1.10,2013-02-06 19:29:00,
2013-02-06 13:44:00,74.2,56.0,29.88,SE,132,0.0,-999.0,53,-99.99,,,0.01,weatherlink.com 1.10,2013-02-06 19:44:00,
2013-02-06 13:59:00,74.6,54.0,29.88,ESE,109,0.0,-999.0,49,-99.99,,,0.01,weatherlink.com 1.10,2013-02-06 19:59:00,
2013-02-06 14:14:00,74.5,55.0,29.87,WSW,253,0.0,-999.0,51,-99.99,,,0.01,weatherlink.com 1.10,2013-02-06 20:14:00,
2013-02-06 14:29:00,73.8,55.0,29.86,SE,130,0.0,-999.0,53,-99.99,,,0.01,weatherlink.com 1.10,2013-02-06 20:29:00,
2013-02-06 14:44:00,73.8,57.0,29.86,SE,137,0.0,-999.0,56,-99.99,,,0.01,weatherlink.com 1.10,2013-02-06 20:44:00,
2013-02-06 14:59:00,73.4,57.0,29.86,East,101,0.0,-999.0,56,-99.99,,,0.01,weatherlink.com 1.10,2013-02-06 20:59:00,
2013-02-06 15:14:00,73.5,58.0,29.85,South,176,0.0,-999.0,59,-99.99,,,0.01,weatherlink.com 1.10,2013-02-06 21:14:00,
2013-02-06 15:29:00,73.6,58.0,29.85,East,92,7.0,-999.0,59,-99.99,,,0.01,weatherlink.com 1.10,2013-02-06 21:29:00,
2013-02-06 15:44:00,72.5,60.0,29.84,ENE,72,0.0,-999.0,64,-99.99,,,0.01,weatherlink.com 1.10,2013-02-06 21:44:00,
2013-02-06 15:59:00,71.3,59.0,29.84,South,175,0.0,-999.0,65,-99.99,,,0.01,weatherlink.com 1.10,2013-02-06 21:59:00,
2013-02-06 16:14:00,70.8,58.0,29.84,ESE,118,0.0,-999.0,65,-99.99,,,0.01,weatherlink.com 1.10,2013-02-06 22:14:00,
2013-02-06 16:29:00,70.7,59.0,29.84,ENE,67,4.0,-999.0,66,-99.99,,,0.01,weatherlink.com 1.10,2013-02-06 22:29:00,
2013-02-06 16:44:00,70.2,58.0,29.84,SE,139,1.0,-999.0,66,-99.99,,,0.01,weatherlink.com 1.10,2013-02-06 22:44:00,
2013-02-06 16:59:00,70.0,57.0,29.84,SE,137,3.0,-999.0,64,-99.99,,,0.01,weatherlink.com 1.10,2013-02-06 22:59:00,
2013-02-06 17:14:00,69.2,58.0,29.83,ESE,105,0.0,-999.0,68,-99.99,,,0.01,weatherlink.com 1.10,2013-02-06 23:14:00,
2013-02-06 17:29:00,67.7,58.0,29.84,ENE,67,0.0,-999.0,71,-99.99,,,0.01,weatherlink.com 1.10,2013-02-06 23:29:00,
2013-02-06 17:44:00,66.8,58.0,29.84,East,95,0.0,-999.0,74,-99.99,,,0.01,weatherlink.com 1.10,2013-02-06 23:44:00,
2013-02-06 17:59:00,66.2,58.0,29.85,SE,125,0.0,-999.0,74,-99.99,,,0.01,weatherlink.com 1.10,2013-02-06 23:59:00,
2013-02-06 18:14:00,65.8,58.0,29.85,SE,128,0.0,-999.0,75,-99.99,,,0.01,weatherlink.com 1.10,2013-02-07 00:14:00,
2013-02-06 18:29:00,65.2,58.0,29.85,SE,135,3.0,-999.0,78,-99.99,,,0.01,weatherlink.com 1.10,2013-02-07 00:29:00,
2013-02-06 18:44:00,64.4,58.0,29.86,ESE,114,3.0,-999.0,81,-99.99,,,0.01,weatherlink.com 1.10,2013-02-07 00:44:00,
2013-02-06 18:59:00,63.9,58.0,29.86,NE,46,0.0,-999.0,82,-99.99,,,0.01,weatherlink.com 1.10,2013-02-07 00:59:00,
2013-02-06 19:14:00,63.9,59.0,29.86,SSE,165,0.0,-999.0,83,-99.99,,,0.01,weatherlink.com 1.10,2013-02-07 01:14:00,
2013-02-06 19:29:00,63.7,59.0,29.87,ESE,117,1.0,-999.0,83,-99.99,,,0.01,weatherlink.com 1.10,2013-02-07 01:29:00,
2013-02-06 19:44:00,63.5,58.0,29.87,ESE,102,0.0,-999.0,83,-99.99,,,0.01,weatherlink.com 1.10,2013-02-07 01:44:00,
2013-02-06 19:59:00,63.4,58.0,29.88,ESE,107,4.0,-999.0,83,-99.99,,,0.01,weatherlink.com 1.10,2013-02-07 01:59:00,
2013-02-06 20:14:00,63.3,58.0,29.89,ESE,121,0.0,-999.0,84,-99.99,,,0.01,weatherlink.com 1.10,2013-02-07 02:14:00,
2013-02-06 20:29:00,63.1,58.0,29.89,SE,133,0.0,-999.0,84,-99.99,,,0.01,weatherlink.com 1.10,2013-02-07 02:29:00,
2013-02-06 20:44:00,62.8,58.0,29.90,ESE,107,0.0,-999.0,84,-99.99,,,0.01,weatherlink.com 1.10,2013-02-07 02:44:00,
2013-02-06 20:59:00,62.6,58.0,29.90,ESE,120,0.0,-999.0,85,-99.99,,,0.01,weatherlink.com 1.10,2013-02-07 02:59:00,
2013-02-06 21:14:00,62.5,58.0,29.90,ESE,121,3.0,-999.0,85,-99.99,,,0.01,weatherlink.com 1.10,2013-02-07 03:14:00,
2013-02-06 22:29:00,62.1,58.0,29.89,SE,139,0.0,-999.0,87,-99.99,,,0.01,weatherlink.com 1.10,2013-02-07 04:29:00,
2013-02-06 22:44:00,62.1,58.0,29.89,ESE,104,0.0,-999.0,87,-99.99,,,0.01,weatherlink.com 1.10,2013-02-07 04:44:00,
2013-02-06 22:59:00,62.0,58.0,29.89,East,88,4.0,-999.0,87,-99.99,,,0.01,weatherlink.com 1.10,2013-02-07 04:59:00,
2013-02-06 23:14:00,61.8,58.0,29.89,ESE,122,3.0,-999.0,87,-99.99,,,0.01,weatherlink.com 1.10,2013-02-07 05:14:00,
2013-02-06 23:29:00,61.8,58.0,29.89,SE,137,0.0,-999.0,87,-99.99,,,0.01,weatherlink.com 1.10,2013-02-07 05:29:00,
2013-02-06 23:44:00,61.8,58.0,29.88,East,95,4.0,-999.0,87,-99.99,,,0.01,weatherlink.com 1.10,2013-02-07 05:44:00,
2013-02-06 23:59:00,61.7,58.0,29.88,East,96,0.0,-999.0,86,-99.99,,,0.01,weatherlink.com 1.10,2013-02-07 05:59:00,